Time;durP1;ratioP1;P1;durP2;ratioP2;P2;SDS_P1;SDS_P2;PMS_P1;PMS_P2;Temp;Humidity;BMP_temperature;BMP_pressure;BME280_temperature;BME280_humidity;BME280_pressure;Samples;Min_cycle;Max_cycle;Signal;HPM_P1;HPM_P2
2022/05/26 00:00:59;;;;;;;13.23;4.13;;;14.40;99.90;;;;;;4993508;28;20026;-54
2022/05/26 00:03:25;;;;;;;14.45;4.00;;;14.50;99.90;;;;;;4993749;28;20030;-54
2022/05/26 00:05:51;;;;;;;17.65;3.83;;;14.60;99.90;;;;;;4993851;28;20034;-53
2022/05/26 00:08:17;;;;;;;12.65;3.90;;;14.60;99.90;;;;;;4993603;28;20026;-53
2022/05/26 00:10:42;;;;;;;15.52;4.85;;;14.50;99.90;;;;;;4993819;28;20085;-53
2022/05/26 00:13:08;;;;;;;17.52;4.25;;;14.50;99.90;;;;;;4993503;28;20052;-54
2022/05/26 00:15:34;;;;;;;13.65;4.07;;;14.60;99.90;;;;;;4993666;28;20034;-53
2022/05/26 00:17:59;;;;;;;17.98;4.53;;;14.50;99.90;;;;;;4993816;28;20018;-54
2022/05/26 00:20:25;;;;;;;15.55;3.92;;;14.50;99.90;;;;;;4993530;28;20475;-54
2022/05/26 00:22:51;;;;;;;15.73;3.85;;;14.60;99.90;;;;;;5008708;28;20081;-53
2022/05/26 00:25:16;;;;;;;14.75;3.95;;;14.50;99.90;;;;;;4993404;28;20031;-54
2022/05/26 00:27:42;;;;;;;21.80;4.60;;;14.50;99.90;;;;;;4993268;28;20030;-54
2022/05/26 00:30:09;;;;;;;19.73;3.90;;;14.40;99.90;;;;;;4993470;28;20522;-52
2022/05/26 00:32:34;;;;;;;19.02;4.55;;;14.40;99.90;;;;;;4993062;28;20087;-53
2022/05/26 00:35:00;;;;;;;19.50;4.65;;;14.40;99.90;;;;;;4992963;28;20022;-53
2022/05/26 00:37:26;;;;;;;21.42;4.15;;;14.50;99.90;;;;;;4993235;28;20033;-53
2022/05/26 00:39:51;;;;;;;15.20;4.13;;;14.40;99.90;;;;;;4993300;28;20034;-54
2022/05/26 00:42:17;;;;;;;18.77;4.43;;;14.40;99.90;;;;;;4992674;28;20656;-53
2022/05/26 00:44:42;;;;;;;21.17;4.43;;;14.40;99.90;;;;;;4992243;28;20030;-54
2022/05/26 00:47:21;;;;;;;19.75;4.50;;;14.40;99.90;;;;;;4992700;28;20563;-54
2022/05/26 00:50:11;;;;;;;17.80;4.15;;;14.40;99.90;;;;;;4992653;28;20026;-54
2022/05/26 00:52:47;;;;;;;19.38;4.78;;;14.40;99.90;;;;;;4993229;28;20120;-54
2022/05/26 00:55:20;;;;;;;15.63;3.90;;;14.40;99.90;;;;;;4992941;28;20141;-54
2022/05/26 00:57:50;;;;;;;17.30;4.30;;;14.40;99.90;;;;;;4992591;28;20490;-54
2022/05/26 01:00:23;;;;;;;22.10;4.60;;;14.40;99.90;;;;;;4992637;28;20023;-54
2022/05/26 01:03:05;;;;;;;22.27;4.63;;;14.40;99.90;;;;;;4992863;28;20018;-53
2022/05/26 01:05:41;;;;;;;24.47;3.90;;;14.50;99.90;;;;;;4992799;28;20019;-54
2022/05/26 01:08:12;;;;;;;18.50;4.30;;;14.50;99.90;;;;;;4992567;28;20498;-54
2022/05/26 01:10:38;;;;;;;14.45;3.80;;;14.40;99.90;;;;;;4992704;28;20026;-54
2022/05/26 01:13:03;;;;;;;21.48;5.22;;;14.40;99.90;;;;;;4992657;28;20053;-54
2022/05/26 01:15:33;;;;;;;16.95;4.28;;;14.30;99.90;;;;;;4992524;28;20081;-54
2022/05/26 01:18:08;;;;;;;20.95;4.60;;;14.40;99.90;;;;;;4992959;28;20026;-53
2022/05/26 01:20:43;;;;;;;22.38;5.13;;;14.40;99.90;;;;;;4992929;28;20022;-56
2022/05/26 01:23:28;;;;;;;19.88;4.75;;;14.40;99.90;;;;;;4992121;28;20101;-55
2022/05/26 01:26:18;;;;;;;19.55;4.75;;;14.50;99.90;;;;;;4992617;28;20468;-54
2022/05/26 01:29:31;;;;;;;24.52;5.28;;;14.50;99.90;;;;;;4992688;28;20104;-54
2022/05/26 01:32:26;;;;;;;25.70;5.38;;;14.40;99.90;;;;;;4992630;28;20068;-55
2022/05/26 01:35:15;;;;;;;24.90;4.90;;;14.40;99.90;;;;;;4992453;28;20081;-55
2022/05/26 01:37:56;;;;;;;21.20;4.18;;;14.40;99.90;;;;;;5000059;28;20039;-55
2022/05/26 01:40:44;;;;;;;19.08;4.75;;;14.40;99.90;;;;;;4992454;28;20023;-55
2022/05/26 01:43:22;;;;;;;15.45;4.30;;;14.30;99.90;;;;;;5007225;28;20434;-55
2022/05/26 01:46:04;;;;;;;30.67;5.38;;;14.30;99.90;;;;;;4992243;28;20085;-54
2022/05/26 01:48:35;;;;;;;33.35;5.28;;;14.30;99.90;;;;;;4992117;28;20088;-55
2022/05/26 01:51:16;;;;;;;24.45;5.30;;;14.30;99.90;;;;;;4992530;28;20030;-55
2022/05/26 01:54:18;;;;;;;20.65;4.65;;;14.40;99.90;;;;;;4992353;28;20082;-55
2022/05/26 01:57:06;;;;;;;19.00;5.25;;;14.30;99.90;;;;;;4993452;28;20018;-54
2022/05/26 01:59:49;;;;;;;22.65;4.70;;;14.40;99.90;;;;;;4996639;28;20491;-55
2022/05/26 02:02:25;;;;;;;22.80;5.35;;;14.30;99.90;;;;;;4996103;28;20073;-55
2022/05/26 02:04:56;;;;;;;23.40;5.60;;;14.30;99.90;;;;;;4995849;28;20029;-54
2022/05/26 02:07:36;;;;;;;22.25;5.70;;;14.30;99.90;;;;;;4995830;28;20165;-54
2022/05/26 02:10:10;;;;;;;21.75;5.10;;;14.30;99.90;;;;;;4995925;28;20108;-55
2022/05/26 02:12:44;;;;;;;26.17;5.38;;;14.20;99.90;;;;;;4995865;28;20050;-54
2022/05/26 02:15:34;;;;;;;27.42;6.20;;;14.20;99.90;;;;;;4995647;28;20034;-55
2022/05/26 02:18:05;;;;;;;21.00;4.75;;;14.30;99.90;;;;;;4995847;28;20422;-54
2022/05/26 02:20:40;;;;;;;24.05;5.60;;;14.30;99.90;;;;;;4995847;28;20161;-55
2022/05/26 02:23:30;;;;;;;25.55;5.53;;;14.20;99.90;;;;;;4995617;28;20026;-54
2022/05/26 02:25:57;;;;;;;19.55;5.28;;;14.20;99.90;;;;;;4995154;28;20382;-56
2022/05/26 02:28:23;;;;;;;22.48;5.90;;;14.30;99.90;;;;;;4995782;28;20030;-55
2022/05/26 02:30:50;;;;;;;25.30;5.47;;;14.30;99.90;;;;;;4995767;28;20026;-55
2022/05/26 02:33:17;;;;;;;28.63;5.78;;;14.30;99.90;;;;;;5010627;28;20022;-54
2022/05/26 02:35:46;;;;;;;21.88;5.28;;;14.30;99.90;;;;;;4995766;28;20487;-55
2022/05/26 02:38:18;;;;;;;25.90;5.47;;;14.30;99.90;;;;;;4995631;28;20022;-55
2022/05/26 02:40:45;;;;;;;19.95;5.10;;;14.30;99.90;;;;;;4995504;28;20057;-55
2022/05/26 02:43:25;;;;;;;22.25;5.13;;;14.30;99.90;;;;;;4995650;28;20022;-54
2022/05/26 02:46:09;;;;;;;20.52;5.80;;;14.30;99.90;;;;;;4995681;28;20041;-55
2022/05/26 02:48:46;;;;;;;27.27;5.75;;;14.30;99.90;;;;;;4995535;28;20426;-54
2022/05/26 02:51:48;;;;;;;29.40;5.40;;;14.30;99.90;;;;;;4995029;28;20022;-54
2022/05/26 02:55:00;;;;;;;28.10;5.87;;;14.20;99.90;;;;;;4997765;28;20371;-55
2022/05/26 02:57:35;;;;;;;28.55;6.03;;;14.20;99.90;;;;;;5011706;28;20068;-54
2022/05/26 03:00:20;;;;;;;33.42;7.00;;;14.10;99.90;;;;;;4996429;28;20046;-55
2022/05/26 03:03:04;;;;;;;21.40;5.60;;;14.00;99.90;;;;;;4995016;28;20447;-58
2022/05/26 03:05:48;;;;;;;28.83;6.38;;;14.00;99.90;;;;;;4994284;28;20029;-54
2022/05/26 03:08:18;;;;;;;27.08;6.25;;;14.00;99.90;;;;;;4994848;28;20018;-55
2022/05/26 03:10:52;;;;;;;30.15;6.13;;;13.90;99.90;;;;;;4994790;28;20041;-56
2022/05/26 03:13:18;;;;;;;26.38;6.15;;;14.00;99.90;;;;;;4994173;28;20561;-55
2022/05/26 03:15:43;;;;;;;32.40;6.70;;;14.00;99.90;;;;;;4994376;28;20030;-55
2022/05/26 03:18:09;;;;;;;33.97;6.28;;;14.00;99.90;;;;;;4994488;28;20022;-54
2022/05/26 03:20:36;;;;;;;28.00;6.38;;;13.90;99.90;;;;;;4994602;28;20415;-54
2022/05/26 03:23:02;;;;;;;29.23;6.30;;;13.90;99.90;;;;;;4994501;28;20510;-54
2022/05/26 03:25:28;;;;;;;31.00;5.95;;;13.90;99.90;;;;;;4994207;28;20030;-55
2022/05/26 03:27:53;;;;;;;33.35;6.25;;;13.90;99.90;;;;;;4994146;28;20402;-54
2022/05/26 03:30:19;;;;;;;34.53;7.47;;;13.90;99.90;;;;;;4994031;28;20030;-54
2022/05/26 03:32:46;;;;;;;31.05;7.50;;;13.80;99.90;;;;;;4993883;28;20042;-55
2022/05/26 03:40:56;;;;;;;26.05;6.70;;;13.90;99.90;;;;;;4994392;28;20048;-54
2022/05/26 03:43:39;;;;;;;31.00;7.80;;;13.80;99.90;;;;;;4993681;28;20113;-54
2022/05/26 03:46:06;;;;;;;23.20;6.20;;;13.80;99.90;;;;;;4993703;28;20368;-54
2022/05/26 03:48:31;;;;;;;26.08;7.03;;;13.80;99.90;;;;;;4993550;28;20026;-55
2022/05/26 03:50:58;;;;;;;33.22;7.57;;;13.80;99.90;;;;;;4993761;28;20383;-56
2022/05/26 03:53:24;;;;;;;32.90;7.50;;;13.90;99.90;;;;;;4993663;28;20042;-54
2022/05/26 03:55:50;;;;;;;24.85;7.55;;;13.90;99.90;;;;;;4993236;28;20486;-55
2022/05/26 03:58:17;;;;;;;30.63;7.05;;;13.90;99.90;;;;;;4993892;28;20018;-54
2022/05/26 04:00:43;;;;;;;30.52;6.30;;;13.90;99.90;;;;;;4993494;28;20018;-54
2022/05/26 04:03:09;;;;;;;27.40;6.93;;;13.90;99.90;;;;;;4993498;28;20029;-54
2022/05/26 04:05:35;;;;;;;30.00;7.47;;;13.80;99.90;;;;;;4993213;28;20030;-55
2022/05/26 04:08:01;;;;;;;28.58;6.90;;;13.80;99.90;;;;;;4993548;28;20045;-55
2022/05/26 04:10:27;;;;;;;29.25;7.05;;;13.80;99.90;;;;;;4993915;28;20379;-54
2022/05/26 04:12:52;;;;;;;26.67;6.80;;;13.80;99.90;;;;;;4992157;28;20418;-55
2022/05/26 04:15:18;;;;;;;29.75;8.05;;;13.80;99.90;;;;;;4993460;28;20019;-54
2022/05/26 04:17:45;;;;;;;32.50;7.47;;;13.80;99.90;;;;;;4993291;28;20113;-54
2022/05/26 04:20:15;;;;;;;30.80;7.72;;;13.80;99.90;;;;;;4992805;28;20390;-54
2022/05/26 04:22:40;;;;;;;34.58;7.78;;;13.80;99.90;;;;;;4993122;28;20081;-54
2022/05/26 04:25:07;;;;;;;35.10;7.88;;;13.90;99.90;;;;;;4993173;28;20487;-54
2022/05/26 04:27:33;;;;;;;30.80;8.20;;;13.90;99.90;;;;;;4993446;28;20104;-54
2022/05/26 04:30:01;;;;;;;34.30;8.88;;;13.90;99.90;;;;;;4993160;28;20026;-54
2022/05/26 04:32:27;;;;;;;26.70;9.27;;;13.90;99.90;;;;;;4993306;28;20030;-54
2022/05/26 04:34:53;;;;;;;27.58;8.50;;;14.00;99.90;;;;;;4992685;28;20510;-55
2022/05/26 04:37:21;;;;;;;28.52;8.32;;;14.00;99.90;;;;;;4992912;28;20030;-54
2022/05/26 04:39:47;;;;;;;29.60;8.85;;;14.10;99.90;;;;;;4992657;28;20412;-54
2022/05/26 04:42:13;;;;;;;28.90;9.90;;;14.20;99.90;;;;;;4993245;28;20061;-54
2022/05/26 04:44:43;;;;;;;30.33;10.10;;;14.10;99.90;;;;;;4992470;28;20036;-54
2022/05/26 04:47:10;;;;;;;30.55;9.18;;;14.10;99.90;;;;;;4992490;28;20072;-55
2022/05/26 04:49:37;;;;;;;28.27;9.10;;;14.00;99.90;;;;;;4992734;28;20027;-54
2022/05/26 04:52:05;;;;;;;27.42;10.65;;;14.00;99.90;;;;;;4992545;28;20034;-55
2022/05/26 04:54:31;;;;;;;28.80;10.98;;;14.00;99.90;;;;;;4992407;28;20042;-54
2022/05/26 04:56:57;;;;;;;27.48;10.18;;;14.00;99.90;;;;;;4992839;28;20586;-58
2022/05/26 04:59:23;;;;;;;26.15;9.45;;;14.10;99.90;;;;;;4993042;28;20089;-54
2022/05/26 05:01:49;;;;;;;25.50;7.60;;;14.20;99.90;;;;;;4992494;28;20511;-54
2022/05/26 05:04:15;;;;;;;28.17;7.32;;;14.30;99.90;;;;;;4992338;28;20427;-53
2022/05/26 05:06:40;;;;;;;24.95;7.10;;;14.30;99.90;;;;;;4992067;28;20075;-54
2022/05/26 05:09:06;;;;;;;26.73;6.65;;;14.20;99.90;;;;;;4992426;28;20023;-53
2022/05/26 05:11:32;;;;;;;20.15;6.95;;;14.20;99.90;;;;;;4992858;28;20143;-54
2022/05/26 05:14:03;;;;;;;23.27;6.80;;;14.10;99.90;;;;;;4992786;28;20338;-54
2022/05/26 05:16:33;;;;;;;23.58;6.88;;;14.20;99.90;;;;;;5007591;28;20455;-54
2022/05/26 05:18:59;;;;;;;24.08;6.35;;;14.10;99.90;;;;;;4992844;28;20118;-53
2022/05/26 05:21:34;;;;;;;26.13;6.55;;;14.20;99.90;;;;;;4992656;28;20032;-54
2022/05/26 05:24:05;;;;;;;31.30;7.10;;;14.20;99.90;;;;;;4992852;28;20065;-54
2022/05/26 05:26:34;;;;;;;21.95;6.00;;;14.20;99.90;;;;;;4992506;28;20027;-54
2022/05/26 05:29:09;;;;;;;22.20;5.85;;;14.20;99.90;;;;;;4992283;28;20026;-53
2022/05/26 05:31:44;;;;;;;26.50;6.40;;;14.30;99.90;;;;;;4996478;28;20056;-54
2022/05/26 05:34:25;;;;;;;20.55;5.95;;;14.30;99.90;;;;;;4996591;28;20035;-54
2022/05/26 05:36:51;;;;;;;26.38;8.18;;;14.20;99.90;;;;;;5011109;28;20014;-54
2022/05/26 05:39:17;;;;;;;28.70;7.88;;;14.10;99.90;;;;;;4996670;28;20302;-56
2022/05/26 05:41:42;;;;;;;26.10;8.55;;;14.20;99.90;;;;;;4996690;28;20402;-54
2022/05/26 05:44:08;;;;;;;27.42;8.38;;;14.30;99.90;;;;;;4996134;28;20030;-55
2022/05/26 05:46:34;;;;;;;30.40;9.90;;;14.50;99.90;;;;;;4996105;28;20038;-54
2022/05/26 05:49:04;;;;;;;27.58;8.93;;;14.50;99.90;;;;;;5011557;28;20441;-54
2022/05/26 05:51:32;;;;;;;27.38;9.50;;;14.40;99.90;;;;;;4996279;28;20579;-54
2022/05/26 05:53:58;;;;;;;29.02;9.57;;;14.40;99.90;;;;;;4996619;28;20026;-54
2022/05/26 05:56:23;;;;;;;24.58;8.38;;;14.40;99.90;;;;;;4996359;28;20440;-57
2022/05/26 05:58:51;;;;;;;33.72;10.23;;;14.70;99.90;;;;;;4996114;28;20102;-54
2022/05/26 06:01:17;;;;;;;26.05;10.23;;;14.80;99.90;;;;;;4996165;28;20050;-56
2022/05/26 06:03:43;;;;;;;26.98;9.90;;;14.90;99.90;;;;;;4996273;28;20515;-54
2022/05/26 06:06:09;;;;;;;21.83;9.27;;;15.00;99.90;;;;;;4996124;28;20109;-53
2022/05/26 06:08:35;;;;;;;21.95;9.43;;;15.00;99.90;;;;;;4996103;28;20088;-54
2022/05/26 06:11:01;;;;;;;24.10;9.18;;;15.00;99.90;;;;;;4995248;28;20444;-54
2022/05/26 06:13:27;;;;;;;27.63;10.45;;;15.00;99.90;;;;;;4994629;28;20086;-54
2022/05/26 06:15:53;;;;;;;26.90;10.32;;;15.20;99.90;;;;;;4995519;28;20057;-54
2022/05/26 06:18:19;;;;;;;25.50;11.43;;;15.20;99.90;;;;;;4995150;28;20062;-53
2022/05/26 06:20:45;;;;;;;25.67;10.07;;;15.00;99.90;;;;;;4994889;28;20424;-54
2022/05/26 06:23:11;;;;;;;30.80;10.20;;;15.10;99.90;;;;;;4994449;28;20022;-53
2022/05/26 06:25:37;;;;;;;26.30;10.38;;;15.10;99.90;;;;;;4993453;28;20121;-53
2022/05/26 06:30:47;;;;;;;26.55;9.57;;;15.50;99.90;;;;;;4995407;28;20117;-53
2022/05/26 06:38:44;;;;;;;22.85;10.82;;;15.40;99.90;;;;;;4994593;28;20474;-53
2022/05/26 06:43:57;;;;;;;18.58;9.38;;;15.70;99.90;;;;;;4994316;28;20056;-53
2022/05/26 06:46:23;;;;;;;27.27;9.75;;;16.10;99.90;;;;;;4993164;28;20550;-53
2022/05/26 06:48:49;;;;;;;26.73;9.50;;;16.00;99.90;;;;;;4994314;28;20534;-53
2022/05/26 06:51:15;;;;;;;20.90;9.13;;;16.10;99.90;;;;;;4994365;28;20042;-53
2022/05/26 06:53:41;;;;;;;24.20;8.63;;;16.50;99.90;;;;;;4993813;28;20026;-53
2022/05/26 06:56:07;;;;;;;26.60;9.48;;;16.50;99.90;;;;;;4993886;28;20483;-53
2022/05/26 06:58:33;;;;;;;18.80;7.38;;;16.50;99.90;;;;;;4993835;28;20030;-53
2022/05/26 07:00:59;;;;;;;21.10;7.80;;;16.60;99.90;;;;;;4994057;28;20022;-54
2022/05/26 07:03:25;;;;;;;23.08;8.13;;;16.30;99.90;;;;;;4994181;28;20053;-54
2022/05/26 07:05:51;;;;;;;24.67;8.68;;;16.20;99.90;;;;;;4994352;28;20044;-53
2022/05/26 07:08:18;;;;;;;21.23;7.25;;;16.20;99.90;;;;;;4993877;28;20034;-53
2022/05/26 07:10:46;;;;;;;24.05;7.68;;;16.30;99.90;;;;;;5008909;28;20117;-53
2022/05/26 07:13:12;;;;;;;21.08;7.47;;;16.40;99.90;;;;;;4992272;28;20411;-53
2022/05/26 07:15:38;;;;;;;17.58;6.97;;;16.40;99.90;;;;;;4993850;28;20084;-53
2022/05/26 07:18:05;;;;;;;16.70;6.68;;;16.40;99.90;;;;;;4992494;28;20101;-53
2022/05/26 07:20:31;;;;;;;21.02;7.05;;;16.70;99.90;;;;;;4994305;28;20057;-53
2022/05/26 07:22:56;;;;;;;21.00;6.90;;;16.80;99.90;;;;;;4993526;28;20049;-54
2022/05/26 07:25:22;;;;;;;19.95;5.72;;;16.80;99.90;;;;;;4992179;28;20069;-53
2022/05/26 07:27:48;;;;;;;13.60;5.40;;;16.70;99.90;;;;;;4993939;28;20038;-53
2022/05/26 07:30:14;;;;;;;16.50;5.53;;;16.70;99.90;;;;;;4993610;28;20038;-54
2022/05/26 07:32:39;;;;;;;17.35;5.32;;;17.20;99.90;;;;;;4993431;28;20413;-54
2022/05/26 07:35:05;;;;;;;16.88;5.20;;;18.00;99.90;;;;;;4993578;28;20313;-54
2022/05/26 07:43:02;;;;;;;17.02;5.43;;;18.40;99.90;;;;;;4993329;28;20461;-54
2022/05/26 07:45:28;;;;;;;16.27;4.53;;;17.90;99.90;;;;;;4991977;28;20022;-54
2022/05/26 07:47:54;;;;;;;15.75;4.43;;;18.40;99.90;;;;;;4993183;28;20030;-53
2022/05/26 07:50:20;;;;;;;15.95;4.47;;;18.80;99.90;;;;;;4993289;28;20022;-53
2022/05/26 07:52:47;;;;;;;16.05;4.47;;;18.50;99.90;;;;;;4992438;28;20038;-53
2022/05/26 07:55:13;;;;;;;15.77;4.15;;;18.50;99.90;;;;;;4992159;28;20027;-53
2022/05/26 07:57:39;;;;;;;14.95;3.55;;;19.00;99.90;;;;;;4992629;28;20498;-54
2022/05/26 08:00:06;;;;;;;16.55;3.95;;;19.00;99.90;;;;;;4993045;28;20045;-54
2022/05/26 08:02:31;;;;;;;15.40;4.10;;;18.90;99.90;;;;;;4992628;28;20539;-54
2022/05/26 08:04:57;;;;;;;10.48;3.13;;;19.20;99.90;;;;;;4992883;28;20161;-54
2022/05/26 08:07:23;;;;;;;14.75;3.88;;;18.50;99.90;;;;;;4992273;28;20041;-54
2022/05/26 08:09:49;;;;;;;14.38;3.90;;;18.10;99.90;;;;;;4993060;28;20386;-54
2022/05/26 08:12:15;;;;;;;12.38;3.72;;;17.90;99.90;;;;;;4992640;28;20030;-54
2022/05/26 08:14:42;;;;;;;12.30;3.35;;;17.90;99.90;;;;;;4992495;28;20057;-54
2022/05/26 08:17:10;;;;;;;12.07;2.92;;;19.20;99.90;;;;;;4992473;28;20023;-54
2022/05/26 08:19:37;;;;;;;16.95;3.30;;;19.90;99.90;;;;;;4992565;28;20022;-54
2022/05/26 08:22:02;;;;;;;11.93;2.78;;;19.90;99.90;;;;;;4992845;28;20447;-54
2022/05/26 08:24:28;;;;;;;12.25;3.40;;;20.90;99.90;;;;;;4992744;28;20046;-54
2022/05/26 08:26:54;;;;;;;12.05;3.70;;;20.10;99.90;;;;;;4992164;28;20022;-54
2022/05/26 08:29:20;;;;;;;11.15;3.30;;;19.40;99.90;;;;;;4992156;28;20022;-54
2022/05/26 08:31:45;;;;;;;14.55;3.20;;;19.10;99.90;;;;;;4992743;28;20077;-54
2022/05/26 08:34:11;;;;;;;12.02;3.40;;;18.60;99.90;;;;;;4990601;28;20038;-53
2022/05/26 08:36:37;;;;;;;13.30;3.42;;;18.50;99.90;;;;;;4992838;28;20077;-54
2022/05/26 08:39:04;;;;;;;12.43;2.90;;;18.90;99.90;;;;;;4992316;28;20030;-54
2022/05/26 08:41:37;;;;;;;9.98;2.80;;;19.30;99.90;;;;;;5007491;28;20040;-53
2022/05/26 08:44:22;;;;;;;13.30;3.50;;;18.80;99.90;;;;;;4991828;28;20027;-53
2022/05/26 08:47:01;;;;;;;10.63;3.05;;;19.10;99.90;;;;;;4992225;28;20422;-54
2022/05/26 08:49:42;;;;;;;11.55;2.78;;;19.30;99.90;;;;;;4992151;28;20420;-54
2022/05/26 08:52:10;;;;;;;14.18;3.35;;;18.70;99.90;;;;;;4991603;28;20034;-54
2022/05/26 08:54:51;;;;;;;11.70;3.28;;;18.10;99.90;;;;;;4992059;28;20100;-54
2022/05/26 08:57:37;;;;;;;11.73;2.90;;;18.10;99.90;;;;;;4990780;28;20081;-54
2022/05/26 09:00:04;;;;;;;7.55;2.42;;;19.50;99.90;;;;;;4992069;28;20102;-54
2022/05/26 09:02:37;;;;;;;12.00;3.03;;;21.10;99.90;;;;;;4991698;28;20096;-54
2022/05/26 09:05:10;;;;;;;12.55;3.05;;;20.90;99.90;;;;;;4991797;28;20033;-54
2022/05/26 09:13:13;;;;;;;9.13;2.13;;;19.00;99.90;;;;;;4991491;28;20065;-54
2022/05/26 09:15:41;;;;;;;10.20;2.55;;;19.10;99.90;;;;;;4992117;28;20480;-54
2022/05/26 09:18:20;;;;;;;7.72;2.63;;;19.20;99.90;;;;;;4991498;28;20034;-54
2022/05/26 09:20:48;;;;;;;9.40;2.42;;;18.80;99.90;;;;;;4991616;28;20114;-54
2022/05/26 09:23:15;;;;;;;13.18;2.50;;;18.70;99.90;;;;;;4991644;28;20487;-54
2022/05/26 09:25:52;;;;;;;10.95;2.92;;;18.80;99.90;;;;;;4991313;28;20062;-54
2022/05/26 09:28:41;;;;;;;6.90;2.80;;;19.50;99.90;;;;;;4991607;28;20089;-54
2022/05/26 09:31:27;;;;;;;9.63;2.80;;;19.10;99.90;;;;;;4991648;28;20446;-54
2022/05/26 09:34:02;;;;;;;14.95;2.97;;;19.00;99.90;;;;;;4991618;28;20538;-53
2022/05/26 09:36:30;;;;;;;8.27;2.30;;;18.80;99.90;;;;;;4991714;28;20015;-55
2022/05/26 09:38:58;;;;;;;8.43;2.60;;;18.60;99.90;;;;;;4992009;28;20030;-54
2022/05/26 09:41:24;;;;;;;10.25;2.58;;;18.90;99.90;;;;;;4992141;28;20116;-54
2022/05/26 09:43:53;;;;;;;6.47;2.22;;;19.50;99.90;;;;;;4992056;28;20101;-54
2022/05/26 09:46:24;;;;;;;9.52;2.70;;;19.20;99.90;;;;;;4991589;28;20034;-54
2022/05/26 09:48:57;;;;;;;11.13;2.45;;;19.30;99.90;;;;;;4991637;28;20391;-54
2022/05/26 09:51:27;;;;;;;;;;;19.80;99.90;;;;;;4991035;28;20080;-53
2022/05/26 09:53:55;;;;;;;7.93;2.00;;;20.50;99.90;;;;;;4991738;28;19964;-53
2022/05/26 09:56:37;;;;;;;9.82;3.80;;;20.60;99.90;;;;;;4991970;28;20200;-53
2022/05/26 09:59:25;;;;;;;13.95;5.07;;;21.30;99.90;;;;;;4991528;28;20027;-54
2022/05/26 10:02:05;;;;;;;7.47;2.30;;;21.30;99.90;;;;;;4991624;28;20033;-54
2022/05/26 10:05:03;;;;;;;13.60;2.53;;;21.20;99.90;;;;;;4991976;28;20575;-57
2022/05/26 10:07:32;;;;;;;7.20;2.00;;;21.30;99.90;;;;;;5006079;28;20061;-53
2022/05/26 10:10:12;;;;;;;10.50;2.30;;;21.00;99.90;;;;;;4991465;28;20015;-54
2022/05/26 10:13:10;;;;;;;8.38;2.00;;;20.90;99.90;;;;;;4991238;28;20491;-54
2022/05/26 10:15:55;;;;;;;6.80;1.73;;;21.40;99.90;;;;;;4991608;28;20092;-54
2022/05/26 10:18:23;;;;;;;9.93;2.30;;;21.10;99.90;;;;;;4993152;28;20046;-53
2022/05/26 10:20:55;;;;;;;6.00;1.58;;;21.80;99.90;;;;;;4994783;28;20033;-53
2022/05/26 10:23:33;;;;;;;7.50;2.30;;;21.30;99.90;;;;;;4995096;28;20543;-54
2022/05/26 10:26:01;;;;;;;8.32;2.85;;;20.90;99.90;;;;;;4994669;28;20027;-54
2022/05/26 10:28:53;;;;;;;6.63;2.25;;;20.40;99.90;;;;;;4994955;28;20061;-54
2022/05/26 10:31:50;;;;;;;7.97;2.28;;;20.60;99.90;;;;;;4995175;28;20023;-54
2022/05/26 10:34:30;;;;;;;9.68;2.95;;;21.60;99.90;;;;;;4994522;28;20042;-54
2022/05/26 10:37:08;;;;;;;7.57;2.03;;;22.00;99.90;;;;;;4994534;28;20041;-53
2022/05/26 10:40:08;;;;;;;8.82;2.20;;;21.10;99.90;;;;;;5010007;28;20541;-53
2022/05/26 10:42:39;;;;;;;6.95;2.30;;;20.90;99.90;;;;;;4994956;28;20419;-53
2022/05/26 10:45:16;;;;;;;6.57;1.83;;;21.60;99.90;;;;;;4994213;28;20467;-53
2022/05/26 10:48:14;;;;;;;7.75;1.38;;;21.70;99.90;;;;;;4994100;28;20026;-53
2022/05/26 10:51:21;;;;;;;9.38;1.90;;;22.20;99.90;;;;;;4993072;28;20038;-53
2022/05/26 10:53:55;;;;;;;8.02;1.40;;;21.90;99.90;;;;;;4994961;28;20047;-53
2022/05/26 10:56:39;;;;;;;5.38;1.30;;;21.80;99.90;;;;;;4974531;28;20110;-53
2022/05/26 10:59:41;;;;;;;6.95;1.60;;;22.00;99.90;;;;;;4974917;28;20431;-53
2022/05/26 11:02:18;;;;;;;6.28;1.27;;;22.00;99.90;;;;;;4972869;28;20403;-53
2022/05/26 11:05:00;;;;;;;6.15;1.55;;;22.20;99.90;;;;;;4974504;28;20027;-53
2022/05/26 11:07:31;;;;;;;;;;;22.30;99.90;;;;;;4974940;28;20399;-54
2022/05/26 11:10:05;;;;;;;6.75;1.40;;;22.20;99.90;;;;;;4974386;28;19913;-54
2022/05/26 11:12:47;;;;;;;5.47;1.33;;;21.70;99.90;;;;;;4988893;28;20391;-54
2022/05/26 11:18:27;;;;;;;5.82;1.23;;;22.60;99.40;;;;;;4974222;28;20256;-53
2022/05/26 11:20:54;;;;;;;4.53;1.30;;;22.80;99.60;;;;;;4974361;28;20023;-53
2022/05/26 11:23:24;;;;;;;6.40;1.45;;;23.40;98.90;;;;;;4974318;28;20383;-54
2022/05/26 11:25:53;;;;;;;6.65;1.42;;;22.90;99.00;;;;;;4973964;28;20026;-53
2022/05/26 11:28:34;;;;;;;5.30;1.30;;;23.20;99.90;;;;;;4973749;28;20031;-53
2022/05/26 11:37:18;;;;;;;10.57;1.30;;;22.80;99.90;;;;;;4973882;28;20428;-54
2022/05/26 11:39:45;;;;;;;8.25;1.50;;;23.10;99.80;;;;;;4973728;28;20022;-53
2022/05/26 11:42:27;;;;;;;6.32;1.67;;;23.00;99.20;;;;;;4973501;28;20022;-53
2022/05/26 11:45:19;;;;;;;7.53;1.50;;;23.40;99.60;;;;;;4973286;28;20023;-53
2022/05/26 11:48:00;;;;;;;5.27;1.17;;;22.40;99.80;;;;;;4974931;28;20047;-53
2022/05/26 11:50:44;;;;;;;4.32;1.38;;;22.10;99.90;;;;;;4973880;28;20355;-53
2022/05/26 11:53:13;;;;;;;5.22;1.23;;;21.70;99.90;;;;;;4973403;28;20026;-53
2022/05/26 11:56:03;;;;;;;5.45;1.55;;;21.50;99.90;;;;;;4973497;28;20078;-53
2022/05/26 11:58:37;;;;;;;5.70;1.40;;;21.70;99.90;;;;;;4973371;28;20361;-53
2022/05/26 12:01:14;;;;;;;7.07;1.60;;;22.00;99.80;;;;;;4973786;28;20082;-53
2022/05/26 12:03:54;;;;;;;5.68;1.30;;;22.20;99.90;;;;;;4973052;28;20034;-53
2022/05/26 12:06:38;;;;;;;6.38;1.73;;;22.10;99.90;;;;;;4973052;28;20059;-53
2022/05/26 12:09:05;;;;;;;4.22;1.20;;;21.70;99.90;;;;;;4972947;28;20023;-53
2022/05/26 12:11:52;;;;;;;5.93;1.50;;;21.70;99.90;;;;;;4972812;28;20511;-53
2022/05/26 12:14:43;;;;;;;5.38;1.60;;;21.90;99.90;;;;;;4972568;28;20125;-53
2022/05/26 12:17:34;;;;;;;5.20;1.43;;;21.70;99.90;;;;;;4973771;28;20035;-53
2022/05/26 12:20:09;;;;;;;6.63;1.60;;;21.90;99.90;;;;;;4973552;28;20396;-53
2022/05/26 12:22:41;;;;;;;4.65;1.42;;;21.50;99.90;;;;;;4973219;28;20098;-54
2022/05/26 12:25:25;;;;;;;;;;;22.30;99.90;;;;;;4973509;28;20113;-54
2022/05/26 12:27:51;;;;;;;5.55;1.45;;;22.70;99.90;;;;;;4973175;28;20397;-54
2022/05/26 12:30:41;;;;;;;6.25;1.13;;;22.60;99.30;;;;;;4972740;28;20023;-54
2022/05/26 12:33:20;;;;;;;5.82;1.15;;;22.60;99.30;;;;;;4973064;28;20419;-54
2022/05/26 12:36:07;;;;;;;5.22;1.30;;;21.50;99.90;;;;;;4972615;28;20037;-53
2022/05/26 12:39:03;;;;;;;6.70;1.60;;;21.50;99.90;;;;;;4972668;28;20110;-53
2022/05/26 12:41:47;;;;;;;5.38;1.30;;;21.50;99.90;;;;;;4972528;28;20065;-54
2022/05/26 12:44:31;;;;;;;5.18;1.70;;;22.10;99.90;;;;;;4972723;28;20387;-54
2022/05/26 12:47:15;;;;;;;4.30;1.40;;;22.20;99.90;;;;;;4972457;28;20022;-54
2022/05/26 12:50:00;;;;;;;3.97;1.42;;;21.50;99.90;;;;;;4973226;28;20031;-54
2022/05/26 12:52:49;;;;;;;5.63;1.50;;;21.00;99.90;;;;;;4972802;28;20034;-54
2022/05/26 12:55:33;;;;;;;7.05;1.75;;;20.60;99.90;;;;;;4971476;28;20124;-54
2022/05/26 12:58:09;;;;;;;7.00;1.73;;;20.50;99.90;;;;;;4972495;28;20022;-53
2022/05/26 13:00:44;;;;;;;3.35;1.20;;;20.90;99.90;;;;;;4972612;28;20019;-53
2022/05/26 13:03:19;;;;;;;4.05;1.20;;;20.60;99.90;;;;;;4972288;28;20027;-53
2022/05/26 13:05:56;;;;;;;7.05;1.70;;;20.50;99.90;;;;;;4972259;28;20030;-53
2022/05/26 13:08:23;;;;;;;7.20;1.48;;;20.40;99.90;;;;;;4972320;28;20073;-53
2022/05/26 13:10:53;;;;;;;5.30;1.50;;;20.50;99.90;;;;;;4972692;28;20038;-53
2022/05/26 13:13:37;;;;;;;4.50;0.98;;;20.60;99.90;;;;;;4972322;28;20570;-54
2022/05/26 13:16:33;;;;;;;9.32;2.13;;;20.60;99.90;;;;;;4972454;28;20030;-53
2022/05/26 13:19:09;;;;;;;5.85;1.30;;;20.90;99.90;;;;;;4972353;28;20390;-54
2022/05/26 13:21:35;;;;;;;7.45;1.27;;;21.00;99.90;;;;;;4972716;28;20025;-53
2022/05/26 13:24:01;;;;;;;7.18;1.20;;;20.70;99.90;;;;;;4972204;28;20398;-53
2022/05/26 13:26:26;;;;;;;6.07;1.40;;;20.90;99.90;;;;;;4971736;28;20518;-53
2022/05/26 13:28:59;;;;;;;7.35;1.08;;;20.80;99.90;;;;;;4972432;28;20027;-54
2022/05/26 13:34:10;;;;;;;3.55;1.23;;;20.90;99.90;;;;;;4972050;28;19960;-53
2022/05/26 13:36:45;;;;;;;5.03;1.13;;;21.00;99.90;;;;;;4971852;28;20556;-53
2022/05/26 13:39:18;;;;;;;3.80;1.20;;;21.20;99.90;;;;;;4972050;28;20098;-53
2022/05/26 13:41:45;;;;;;;6.70;1.40;;;21.90;99.90;;;;;;4972094;28;20111;-53
2022/05/26 13:44:18;;;;;;;5.07;1.38;;;22.10;99.90;;;;;;4972146;28;20077;-53
2022/05/26 13:46:51;;;;;;;4.55;1.23;;;21.60;99.90;;;;;;4972327;28;20031;-53
2022/05/26 13:49:36;;;;;;;4.13;1.30;;;21.00;99.90;;;;;;4972121;28;20031;-54